• Join FlightAware (Why Join?)
  • Login
  • US Flag 
03:53AM EDT


 

Airport Tracker/Info


-or-


 

Live Flight TrackerFlight Track Log ✈ AUB1638 ✈ 19-Apr-2013 ✈ EDDM / MUC - EPPO / POZ

Flight Track Log - Related Links

Times and Time Zones

All times are in EDT time to prevent confusion due to time zone crossing. See the AUB1638 flight status page for this flight to view local times or setup timezone preferences in your user account.

Time Position Orientation Groundspeed Altitude Reporting Facility
EDT Latitude Longitude Course Direction KTS MPH feet Rate Location/Type
08:52AM 48.5619 12.0181 36° Northeast  Level Estimated
08:53AM 48.6311 12.0959 37° Northeast  Level Estimated
08:54AM 48.7003 12.1738 37° Northeast  Level Estimated
08:55AM 48.7695 12.2520 37° Northeast  Level Estimated
08:56AM 48.8386 12.3304 37° Northeast  Level Estimated
08:57AM 48.9076 12.4091 37° Northeast  Level Estimated
08:58AM 48.9766 12.4879 37° Northeast  Level Estimated
08:59AM 49.0456 12.5670 37° Northeast  Level Estimated
09:00AM 49.1144 12.6462 37° Northeast  Level Estimated
09:01AM 49.1833 12.7257 37° Northeast  Level Estimated
09:02AM 49.2520 12.8055 37° Northeast  Level Estimated
09:03AM 49.3208 12.8854 37° Northeast  Level Estimated
09:04AM 49.3894 12.9656 37° Northeast  Level Estimated
09:05AM 49.4580 13.0460 37° Northeast  Level Estimated
09:06AM 49.5266 13.1266 37° Northeast  Level Estimated
09:07AM 49.5951 13.2074 37° Northeast  Level Estimated
09:08AM 49.6635 13.2885 37° Northeast  Level Estimated
09:09AM 49.7319 13.3698 38° Northeast  Level Estimated
09:10AM 49.8002 13.4513 38° Northeast  Level Estimated
09:11AM 49.8685 13.5331 38° Northeast  Level Estimated
09:12AM 49.9367 13.6151 38° Northeast  Level Estimated
09:13AM 50.0049 13.6973 38° Northeast  Level Estimated
09:14AM 50.0730 13.7797 38° Northeast  Level Estimated
09:15AM 50.1410 13.8624 38° Northeast  Level Estimated
09:16AM 50.2090 13.9453 38° Northeast  Level Estimated
09:17AM 50.2769 14.0285 38° Northeast  Level Estimated
09:18AM 50.3448 14.1119 38° Northeast  Level Estimated
09:19AM 50.4126 14.1955 38° Northeast  Level Estimated
09:20AM 50.4803 14.2794 38° Northeast  Level Estimated
09:21AM 50.5480 14.3635 38° Northeast  Level Estimated
09:22AM 50.6156 14.4479 38° Northeast  Level Estimated
09:23AM 50.6832 14.5325 38° Northeast  Level Estimated
09:24AM 50.7507 14.6173 38° Northeast  Level Estimated
09:25AM 50.8181 14.7024 39° Northeast  Level Estimated
09:26AM 50.8855 14.7878 39° Northeast  Level Estimated
09:27AM 50.9528 14.8734 39° Northeast  Level Estimated
09:28AM 51.0200 14.9592 39° Northeast  Level Estimated
09:29AM 51.0872 15.0453 39° Northeast  Level Estimated
09:30AM 51.1543 15.1316 39° Northeast  Level Estimated
09:31AM 51.2214 15.2182 39° Northeast  Level Estimated
09:32AM 51.2884 15.3050 39° Northeast  Level Estimated
09:33AM 51.3553 15.3921 39° Northeast  Level Estimated
09:34AM 51.4222 15.4794 39° Northeast  Level Estimated
09:35AM 51.4890 15.5670 39° Northeast  Level Estimated
09:36AM 51.5557 15.6549 39° Northeast  Level Estimated
09:37AM 51.6224 15.7430 39° Northeast  Level Estimated
09:38AM 51.6890 15.8314 39° Northeast  Level Estimated
09:39AM 51.7555 15.9200 39° Northeast  Level Estimated
09:40AM 51.8220 16.0089 40° Northeast  Level Estimated
09:41AM 51.8884 16.0980 40° Northeast  Level Estimated
09:42AM 51.9547 16.1875 40° Northeast  Level Estimated
09:43AM 52.0210 16.2771 40° Northeast  Level Estimated
09:44AM 52.0872 16.3671 40° Northeast  Level Estimated
09:45AM 52.1533 16.4573 40° Northeast  Level Estimated
09:46AM 52.2194 16.5478 40° Northeast  Level Estimated
09:47AM 52.2854 16.6386 40° Northeast  Level Estimated
09:48AM 52.3513 16.7296 40° Northeast  Level Estimated
09:49AM 52.4171 16.8209 40° Northeast  Level Estimated
09:50AM 52.4210 16.8263 40° Northeast  Level Estimated
09:51AM 52.4210 16.8263 72° East  Level Estimated
09:52AM 52.4210 16.8263 72° East  Level Estimated
09:53AM 52.4210 16.8263 72° East  Level Estimated
09:54AM 52.4210 16.8263 72° East  Level Estimated
09:55AM 52.4210 16.8263 72° East  Level Estimated
09:56AM 52.4210 16.8263 72° East  Level Estimated
09:57AM 52.4210 16.8263 72° East  Level Estimated
09:58AM 52.4210 16.8263 72° East  Level Estimated
09:59AM 52.4210 16.8263 72° East  Level Estimated
10:00AM 52.4210 16.8263 72° East  Level Estimated
10:01AM 52.4210 16.8263 72° East  Level Estimated
10:02AM 52.4210 16.8263 72° East  Level Estimated
10:03AM 52.4210 16.8263 72° East  Level Estimated
10:04AM 52.4210 16.8263 72° East  Level Estimated
10:05AM 52.4210 16.8263 72° East  Level Estimated